Time;durP1;ratioP1;P1;durP2;ratioP2;P2;SDS_P1;SDS_P2;PMS_P1;PMS_P2;Temp;Humidity;BMP_temperature;BMP_pressure;BME280_temperature;BME280_humidity;BME280_pressure;Samples;Min_cycle;Max_cycle;Signal;HPM_P1;HPM_P2
2023/05/19 00:02:19;;;;;;;14.80;6.80;;;10.30;99.90;;;;;;5049250;28;20215;-72
2023/05/19 00:04:48;;;;;;;15.23;7.72;;;10.30;99.90;;;;;;5052239;28;20199;-71
2023/05/19 00:07:18;;;;;;;10.60;6.78;;;10.20;99.90;;;;;;5049834;28;20258;-71
2023/05/19 00:09:47;;;;;;;14.80;7.35;;;10.20;99.90;;;;;;5046243;28;20208;-71
2023/05/19 00:12:15;;;;;;;14.85;6.97;;;10.20;99.90;;;;;;5045424;28;20231;-72
2023/05/19 00:14:45;;;;;;;9.35;6.57;;;10.20;99.90;;;;;;5029262;28;20307;-71
2023/05/19 00:17:12;;;;;;;17.30;7.38;;;10.20;99.90;;;;;;5045127;28;20290;-72
2023/05/19 00:19:41;;;;;;;12.10;7.70;;;10.10;99.90;;;;;;5051741;28;20205;-71
2023/05/19 00:22:08;;;;;;;13.73;7.22;;;10.10;99.90;;;;;;5052584;28;20230;-70
2023/05/19 00:24:34;;;;;;;13.38;7.00;;;10.00;99.90;;;;;;5051930;28;20220;-70
2023/05/19 00:27:01;;;;;;;10.90;7.40;;;10.00;99.90;;;;;;5039652;28;20302;-71
2023/05/19 00:29:28;;;;;;;12.13;6.38;;;10.00;99.90;;;;;;5050695;28;20608;-72
2023/05/19 00:31:57;;;;;;;19.60;9.35;;;9.90;99.90;;;;;;5051218;28;20641;-74
2023/05/19 00:34:24;;;;;;;14.55;7.28;;;9.90;99.90;;;;;;5057307;28;20245;-72
2023/05/19 00:36:51;;;;;;;14.45;7.85;;;9.90;99.90;;;;;;5056968;28;20626;-72
2023/05/19 00:39:17;;;;;;;14.02;8.30;;;9.90;99.90;;;;;;5052468;28;20607;-73
2023/05/19 00:41:44;;;;;;;18.13;6.93;;;9.90;99.90;;;;;;5054998;28;20675;-73
2023/05/19 00:44:11;;;;;;;15.38;8.80;;;9.90;99.90;;;;;;5052156;28;20207;-73
2023/05/19 00:46:40;;;;;;;16.05;11.82;;;9.90;99.90;;;;;;5057977;28;20195;-71
2023/05/19 00:49:08;;;;;;;15.23;8.55;;;9.90;99.90;;;;;;5044919;28;20291;-72
2023/05/19 00:51:39;;;;;;;12.57;7.63;;;9.80;99.90;;;;;;5051414;28;20259;-73
2023/05/19 00:54:06;;;;;;;19.85;8.77;;;9.80;99.90;;;;;;5038542;28;20239;-70
2023/05/19 00:56:34;;;;;;;15.77;8.93;;;9.80;99.90;;;;;;5053495;28;20317;-71
2023/05/19 00:59:01;;;;;;;12.95;8.30;;;9.70;99.90;;;;;;5052136;28;20236;-72
2023/05/19 01:01:28;;;;;;;11.77;8.10;;;9.70;99.90;;;;;;5051801;28;20227;-74
2023/05/19 01:03:57;;;;;;;14.63;8.30;;;9.70;99.90;;;;;;5055770;28;20631;-73
2023/05/19 01:06:26;;;;;;;10.60;8.40;;;9.70;99.90;;;;;;5056436;28;20223;-73
2023/05/19 01:08:54;;;;;;;13.13;8.70;;;9.70;99.90;;;;;;5057491;28;20196;-74
2023/05/19 01:11:21;;;;;;;14.18;9.13;;;9.70;99.90;;;;;;5056558;28;20657;-70
2023/05/19 01:13:49;;;;;;;18.35;9.00;;;9.60;99.90;;;;;;5050697;28;20200;-70
2023/05/19 01:16:24;;;;;;;16.13;9.18;;;9.60;99.90;;;;;;5056112;28;20218;-70
2023/05/19 01:19:00;;;;;;;14.35;9.02;;;9.60;99.90;;;;;;5038201;28;20263;-73
2023/05/19 01:22:06;;;;;;;12.27;8.10;;;9.60;99.90;;;;;;5037350;28;20206;-72
2023/05/19 01:24:56;;;;;;;17.25;9.10;;;9.50;99.90;;;;;;5054370;28;20195;-72
2023/05/19 01:27:54;;;;;;;13.88;7.78;;;9.50;99.90;;;;;;5051384;28;20323;-72
2023/05/19 01:30:28;;;;;;;14.02;8.15;;;9.40;99.90;;;;;;5054363;28;20207;-73
2023/05/19 01:32:58;;;;;;;15.40;7.82;;;9.40;99.90;;;;;;5049807;28;20242;-71
2023/05/19 01:35:26;;;;;;;14.70;8.15;;;9.40;99.90;;;;;;5054962;28;20215;-74
2023/05/19 01:37:56;;;;;;;16.15;7.88;;;9.40;99.90;;;;;;5049533;28;20207;-71
2023/05/19 01:40:28;;;;;;;10.70;9.00;;;9.30;99.90;;;;;;5055592;28;20208;-70
2023/05/19 01:42:58;;;;;;;11.02;7.40;;;9.30;99.90;;;;;;5062088;28;20224;-73
2023/05/19 01:45:29;;;;;;;16.85;8.10;;;9.30;99.90;;;;;;5055472;28;20212;-72
2023/05/19 01:47:58;;;;;;;12.85;8.57;;;9.30;99.90;;;;;;5048445;28;20331;-71
2023/05/19 01:50:25;;;;;;;13.45;7.82;;;9.20;99.90;;;;;;5048222;28;20324;-71
2023/05/19 01:52:52;;;;;;;14.23;8.00;;;9.30;99.90;;;;;;5051327;28;20310;-70
2023/05/19 01:55:21;;;;;;;11.10;7.78;;;9.20;99.90;;;;;;5051951;28;20218;-71
2023/05/19 01:57:59;;;;;;;14.18;7.97;;;9.20;99.90;;;;;;5059662;28;20219;-72
2023/05/19 02:00:36;;;;;;;12.52;8.35;;;9.20;99.90;;;;;;5036612;28;20225;-70
2023/05/19 02:03:13;;;;;;;13.57;8.25;;;9.10;99.90;;;;;;5046385;28;20238;-71
2023/05/19 02:05:50;;;;;;;20.50;8.90;;;9.20;99.90;;;;;;5048916;28;20197;-70
2023/05/19 02:08:24;;;;;;;12.38;7.40;;;9.10;99.90;;;;;;5032857;28;20305;-71
2023/05/19 02:10:57;;;;;;;13.32;9.13;;;9.10;99.90;;;;;;5049080;28;20558;-71
2023/05/19 02:13:31;;;;;;;15.50;8.10;;;9.00;99.90;;;;;;5048714;28;20845;-72
2023/05/19 02:16:04;;;;;;;11.18;8.18;;;9.00;99.90;;;;;;5044728;28;20219;-72
2023/05/19 02:18:32;;;;;;;9.98;8.00;;;8.90;99.90;;;;;;5043752;28;20598;-71
2023/05/19 02:20:59;;;;;;;12.85;7.93;;;8.90;99.90;;;;;;5041505;28;20283;-70
2023/05/19 02:23:26;;;;;;;17.02;8.77;;;8.80;99.90;;;;;;5050475;28;20219;-71
2023/05/19 02:25:52;;;;;;;12.30;7.97;;;8.80;99.90;;;;;;5050088;28;20196;-71
2023/05/19 02:28:19;;;;;;;13.80;8.18;;;8.80;99.90;;;;;;5049145;28;20213;-70
2023/05/19 02:30:46;;;;;;;14.65;9.00;;;8.80;99.90;;;;;;5037541;28;20239;-70
2023/05/19 02:33:15;;;;;;;13.35;8.63;;;8.80;99.90;;;;;;5041441;28;20220;-70
2023/05/19 02:35:41;;;;;;;13.40;7.28;;;8.80;99.90;;;;;;5046152;28;20611;-70
2023/05/19 02:38:08;;;;;;;14.23;7.57;;;8.70;99.90;;;;;;5051804;28;20645;-69
2023/05/19 02:40:35;;;;;;;14.32;7.72;;;8.70;99.90;;;;;;5047330;28;20218;-69
2023/05/19 02:43:02;;;;;;;12.68;7.80;;;8.70;99.90;;;;;;5045472;28;20314;-71
2023/05/19 02:45:30;;;;;;;11.32;7.88;;;8.70;99.90;;;;;;5060581;28;20632;-71
2023/05/19 02:47:57;;;;;;;13.57;7.78;;;8.70;99.90;;;;;;5047500;28;20203;-71
2023/05/19 02:50:25;;;;;;;12.50;8.98;;;8.70;99.90;;;;;;5047018;28;20204;-70
2023/05/19 02:52:52;;;;;;;11.57;8.40;;;8.70;99.90;;;;;;5049952;28;20309;-70
2023/05/19 02:55:19;;;;;;;12.98;7.18;;;8.70;99.90;;;;;;5038631;28;20257;-72
2023/05/19 02:57:46;;;;;;;11.13;7.38;;;8.70;99.90;;;;;;5057445;28;20276;-72
2023/05/19 03:00:14;;;;;;;14.95;9.75;;;8.70;99.90;;;;;;5053534;28;20213;-71
2023/05/19 03:02:42;;;;;;;15.85;8.40;;;8.60;99.90;;;;;;5052959;28;20240;-70
2023/05/19 03:05:10;;;;;;;14.95;8.18;;;8.60;99.90;;;;;;5054030;28;20192;-69
2023/05/19 03:07:38;;;;;;;13.63;8.80;;;8.60;99.90;;;;;;5047010;28;20653;-70
2023/05/19 03:10:07;;;;;;;15.63;7.60;;;8.60;99.90;;;;;;5040793;28;20650;-71
2023/05/19 03:12:34;;;;;;;13.75;8.25;;;8.60;99.90;;;;;;5041004;28;20226;-71
2023/05/19 03:15:01;;;;;;;13.00;8.30;;;8.60;99.90;;;;;;5046299;28;20567;-71
2023/05/19 03:17:32;;;;;;;13.27;8.40;;;8.60;99.90;;;;;;5050579;28;20219;-71
2023/05/19 03:20:00;;;;;;;14.13;8.73;;;8.60;99.90;;;;;;5040574;28;20669;-70
2023/05/19 03:22:27;;;;;;;15.10;7.68;;;8.60;99.90;;;;;;5046304;28;20670;-70
2023/05/19 03:24:55;;;;;;;11.45;7.05;;;8.60;99.90;;;;;;5047355;28;20213;-69
2023/05/19 03:27:22;;;;;;;9.75;7.75;;;8.60;99.90;;;;;;5047693;28;20285;-72
2023/05/19 03:29:48;;;;;;;10.57;7.78;;;8.50;99.90;;;;;;5049831;28;20217;-71
2023/05/19 03:32:15;;;;;;;12.23;8.10;;;8.60;99.90;;;;;;5054085;28;20733;-71
2023/05/19 03:34:42;;;;;;;11.00;8.60;;;8.50;99.90;;;;;;5055445;28;20210;-70
2023/05/19 03:37:11;;;;;;;15.45;8.35;;;8.50;99.90;;;;;;5051706;28;20301;-72
2023/05/19 03:39:38;;;;;;;11.68;7.43;;;8.50;99.90;;;;;;5056839;28;20221;-72
2023/05/19 03:42:06;;;;;;;14.65;7.78;;;8.60;99.90;;;;;;5051115;28;20333;-70
2023/05/19 03:44:33;;;;;;;9.95;7.13;;;8.50;99.90;;;;;;5046280;28;20210;-70
2023/05/19 03:47:00;;;;;;;11.77;8.68;;;8.60;99.90;;;;;;5053683;28;20230;-71
2023/05/19 03:49:27;;;;;;;12.18;8.20;;;8.60;99.90;;;;;;5042601;28;20206;-70
2023/05/19 03:51:54;;;;;;;9.13;7.90;;;8.70;99.90;;;;;;5050881;28;20705;-71
2023/05/19 03:54:22;;;;;;;12.73;8.50;;;8.60;99.90;;;;;;5048889;28;20208;-73
2023/05/19 03:56:50;;;;;;;12.63;8.77;;;8.70;99.90;;;;;;5057471;28;20364;-71
2023/05/19 03:59:18;;;;;;;10.13;7.22;;;8.70;99.90;;;;;;5052291;28;20200;-72
2023/05/19 04:01:46;;;;;;;9.30;7.30;;;8.70;99.90;;;;;;5056956;28;20720;-70
2023/05/19 04:04:13;;;;;;;10.75;8.40;;;8.80;99.90;;;;;;5051104;28;20265;-71
2023/05/19 04:06:40;;;;;;;10.13;7.97;;;8.80;99.90;;;;;;5044250;28;20207;-70
2023/05/19 04:09:12;;;;;;;12.02;7.57;;;8.90;99.90;;;;;;5051505;28;20663;-70
2023/05/19 04:11:39;;;;;;;11.80;8.95;;;8.90;99.90;;;;;;5054930;28;20227;-72
2023/05/19 04:14:06;;;;;;;11.05;8.23;;;9.00;99.90;;;;;;5051588;28;20200;-71
2023/05/19 04:16:34;;;;;;;9.27;6.45;;;9.10;99.90;;;;;;5053435;28;20222;-70
2023/05/19 04:19:01;;;;;;;10.38;7.80;;;9.20;99.90;;;;;;5046438;28;20677;-71
2023/05/19 04:21:28;;;;;;;13.25;8.77;;;9.20;99.90;;;;;;5051498;28;20581;-70
2023/05/19 04:23:57;;;;;;;10.07;7.40;;;9.30;99.90;;;;;;5055982;28;20629;-71
2023/05/19 04:26:25;;;;;;;12.13;8.00;;;9.30;99.90;;;;;;5049851;28;20602;-70
2023/05/19 04:28:52;;;;;;;14.18;6.78;;;9.30;99.90;;;;;;5041328;28;20211;-71
2023/05/19 04:31:20;;;;;;;19.58;9.23;;;9.40;99.90;;;;;;5046145;28;20303;-70
2023/05/19 04:33:48;;;;;;;16.02;8.88;;;9.40;99.90;;;;;;5049179;28;20571;-71
2023/05/19 04:36:19;;;;;;;11.07;7.78;;;9.40;99.90;;;;;;5051285;28;20230;-69
2023/05/19 04:38:46;;;;;;;11.45;6.65;;;9.40;99.90;;;;;;5051853;28;20551;-72
2023/05/19 04:41:15;;;;;;;8.95;6.38;;;9.50;99.90;;;;;;5055436;28;20540;-70
2023/05/19 04:43:43;;;;;;;10.30;7.82;;;9.50;99.90;;;;;;5058956;28;20265;-70
2023/05/19 04:46:11;;;;;;;10.95;7.75;;;9.60;99.90;;;;;;5041408;28;20208;-72
2023/05/19 04:48:38;;;;;;;12.63;7.20;;;9.60;99.90;;;;;;5064655;28;20195;-71
2023/05/19 04:51:07;;;;;;;9.75;7.10;;;9.70;99.90;;;;;;5054413;28;20218;-70
2023/05/19 04:53:34;;;;;;;16.85;8.05;;;9.70;99.90;;;;;;5045223;28;20235;-71
2023/05/19 04:56:01;;;;;;;9.30;7.18;;;9.80;99.90;;;;;;5052836;28;20223;-71
2023/05/19 04:58:28;;;;;;;14.88;8.68;;;9.90;99.90;;;;;;5060756;28;20282;-70
2023/05/19 05:00:56;;;;;;;11.80;7.40;;;10.00;99.90;;;;;;5046131;28;20202;-71
2023/05/19 05:03:24;;;;;;;13.57;7.55;;;10.10;99.90;;;;;;5057863;28;20231;-69
2023/05/19 05:05:51;;;;;;;12.48;7.50;;;10.40;99.90;;;;;;5054232;28;20236;-70
2023/05/19 05:08:21;;;;;;;14.55;7.05;;;10.80;99.90;;;;;;5050483;28;20211;-71
2023/05/19 05:10:50;;;;;;;10.30;7.70;;;11.10;99.90;;;;;;5052909;28;20267;-70
2023/05/19 05:13:17;;;;;;;9.57;7.43;;;11.30;99.90;;;;;;5055971;28;20712;-70
2023/05/19 05:15:45;;;;;;;8.15;6.40;;;11.40;99.90;;;;;;5049413;28;20199;-71
2023/05/19 05:18:13;;;;;;;12.65;6.82;;;11.60;99.90;;;;;;5054370;28;20560;-71
2023/05/19 05:20:41;;;;;;;10.13;6.57;;;11.70;99.90;;;;;;5054522;28;20206;-69
2023/05/19 05:23:13;;;;;;;7.82;6.43;;;11.90;99.90;;;;;;5050049;28;20231;-70
2023/05/19 05:25:42;;;;;;;14.32;7.15;;;12.40;99.90;;;;;;5055243;28;20210;-72
2023/05/19 05:28:09;;;;;;;14.88;7.22;;;12.80;99.90;;;;;;5052144;28;20207;-69
2023/05/19 05:30:36;;;;;;;6.95;5.82;;;13.40;99.90;;;;;;5053599;28;20246;-67
2023/05/19 05:33:03;;;;;;;13.55;7.72;;;14.10;99.90;;;;;;5053091;28;20319;-70
2023/05/19 05:35:30;;;;;;;11.75;6.28;;;14.60;99.90;;;;;;5058647;28;20212;-69
2023/05/19 05:37:57;;;;;;;22.15;7.30;;;15.30;99.90;;;;;;5051856;28;20594;-69
2023/05/19 05:40:24;;;;;;;7.50;5.77;;;16.10;99.90;;;;;;5047482;28;20298;-74
2023/05/19 05:42:54;;;;;;;12.97;5.77;;;16.90;96.60;;;;;;5038381;28;20474;-68
2023/05/19 05:45:21;;;;;;;10.60;5.40;;;17.80;93.80;;;;;;5045556;28;20533;-75
2023/05/19 05:47:48;;;;;;;16.57;5.97;;;18.80;91.60;;;;;;5046261;28;20454;-74
2023/05/19 05:50:16;;;;;;;12.23;4.60;;;19.50;89.50;;;;;;5053595;28;20525;-76
2023/05/19 05:52:46;;;;;;;10.10;5.40;;;20.40;85.90;;;;;;5046720;28;20527;-73
2023/05/19 05:55:14;;;;;;;7.77;4.73;;;20.80;83.40;;;;;;5050057;28;20455;-73
2023/05/19 05:57:41;;;;;;;7.90;5.00;;;21.10;82.00;;;;;;5060076;28;20583;-73
2023/05/19 06:00:14;;;;;;;9.30;4.30;;;21.60;80.30;;;;;;5039526;28;20465;-74
2023/05/19 06:02:42;;;;;;;12.73;5.37;;;22.00;78.50;;;;;;5051635;28;20478;-73
2023/05/19 06:05:11;;;;;;;7.87;5.00;;;22.70;77.60;;;;;;5059352;28;20442;-73
2023/05/19 06:07:38;;;;;;;8.80;4.83;;;23.00;75.30;;;;;;5054278;28;20456;-73
2023/05/19 06:10:06;;;;;;;8.30;4.63;;;23.30;74.20;;;;;;5048486;28;20445;-74
2023/05/19 06:12:33;;;;;;;11.80;5.77;;;23.50;73.20;;;;;;5054351;28;20481;-71
2023/05/19 06:15:01;;;;;;;7.30;4.73;;;23.40;72.70;;;;;;5052421;28;20798;-72
2023/05/19 06:17:30;;;;;;;10.60;5.93;;;24.00;72.40;;;;;;5045207;28;20561;-72
2023/05/19 06:19:56;;;;;;;7.57;5.07;;;24.50;71.20;;;;;;5053215;28;20445;-73
2023/05/19 06:22:23;;;;;;;14.07;6.40;;;24.70;70.50;;;;;;5043871;28;20916;-72
2023/05/19 06:24:50;;;;;;;8.67;4.80;;;25.10;69.30;;;;;;5041165;28;20536;-71
2023/05/19 06:27:17;;;;;;;16.17;6.00;;;25.20;69.30;;;;;;5054333;28;20448;-72
2023/05/19 06:29:44;;;;;;;7.30;4.73;;;25.60;68.50;;;;;;5046882;28;20986;-71
2023/05/19 06:32:11;;;;;;;8.63;4.57;;;26.20;66.10;;;;;;5041730;28;20524;-72
2023/05/19 06:34:39;;;;;;;9.13;4.43;;;26.70;64.60;;;;;;5045343;28;20508;-72
2023/05/19 06:37:06;;;;;;;7.40;4.20;;;26.30;62.70;;;;;;5050458;28;20477;-72
2023/05/19 06:39:33;;;;;;;7.10;4.53;;;26.00;64.60;;;;;;5046515;28;20808;-72
2023/05/19 06:42:00;;;;;;;12.27;4.23;;;26.10;64.50;;;;;;5052041;28;20467;-74
2023/05/19 06:44:27;;;;;;;7.57;4.10;;;26.10;64.10;;;;;;5046512;28;20446;-72
2023/05/19 06:46:54;;;;;;;8.93;4.13;;;26.50;63.60;;;;;;5044351;28;21030;-73
2023/05/19 06:49:21;;;;;;;7.07;4.10;;;26.70;63.80;;;;;;5037705;28;20533;-73
2023/05/19 06:51:49;;;;;;;9.10;4.90;;;27.40;62.00;;;;;;5047832;28;20657;-71
2023/05/19 06:54:16;;;;;;;8.23;4.50;;;27.50;61.60;;;;;;5041525;28;20551;-73
2023/05/19 06:56:43;;;;;;;6.77;4.20;;;27.50;60.80;;;;;;5057722;28;20495;-72
2023/05/19 06:59:10;;;;;;;5.67;4.00;;;27.70;60.60;;;;;;5051606;28;20493;-71
2023/05/19 07:01:37;;;;;;;8.17;4.07;;;27.50;60.10;;;;;;5051826;28;21035;-71
2023/05/19 07:04:04;;;;;;;5.80;3.83;;;27.90;59.40;;;;;;5054085;28;20442;-74
2023/05/19 07:06:32;;;;;;;5.07;4.33;;;27.90;58.70;;;;;;5051940;28;20886;-72
2023/05/19 07:09:00;;;;;;;7.93;5.00;;;27.50;60.50;;;;;;5053133;28;20453;-73
2023/05/19 07:11:27;;;;;;;6.40;4.03;;;27.50;61.00;;;;;;5042480;28;20518;-74
2023/05/19 07:13:54;;;;;;;8.50;4.57;;;27.60;60.30;;;;;;5049189;28;20446;-72
2023/05/19 07:16:21;;;;;;;6.97;4.10;;;28.50;58.80;;;;;;5052094;28;20970;-73
2023/05/19 07:18:48;;;;;;;5.27;4.10;;;28.30;59.80;;;;;;5047269;28;20451;-74
2023/05/19 07:21:15;;;;;;;4.37;3.50;;;28.00;59.20;;;;;;5051845;28;20481;-72
2023/05/19 07:23:42;;;;;;;7.97;4.80;;;28.60;58.40;;;;;;5046848;28;20449;-74
2023/05/19 07:26:10;;;;;;;5.10;4.10;;;29.00;57.20;;;;;;5046385;28;20456;-74
2023/05/19 07:28:37;;;;;;;8.87;4.10;;;29.40;55.80;;;;;;5048915;28;20941;-72
2023/05/19 07:31:04;;;;;;;8.47;3.80;;;29.50;55.70;;;;;;5051988;28;20482;-73
2023/05/19 07:33:31;;;;;;;7.00;3.67;;;29.20;56.30;;;;;;5051595;28;20885;-72
2023/05/19 07:35:58;;;;;;;9.73;4.93;;;29.20;56.80;;;;;;5052792;28;20529;-72
2023/05/19 07:38:25;;;;;;;9.87;4.37;;;29.10;57.00;;;;;;5051686;28;20963;-73
2023/05/19 07:40:52;;;;;;;9.90;3.67;;;29.10;57.20;;;;;;5050209;28;20490;-73
2023/05/19 07:43:20;;;;;;;6.37;4.10;;;29.20;56.90;;;;;;5052599;28;20587;-73
2023/05/19 07:45:47;;;;;;;8.60;3.97;;;29.10;57.00;;;;;;5049208;28;20537;-71
2023/05/19 07:48:14;;;;;;;6.83;3.50;;;29.40;56.90;;;;;;5052291;28;20485;-72
2023/05/19 07:50:41;;;;;;;9.00;4.50;;;29.40;56.20;;;;;;5048019;28;20492;-72
2023/05/19 07:53:07;;;;;;;15.17;4.87;;;29.50;56.10;;;;;;5046558;28;20498;-73
2023/05/19 07:55:34;;;;;;;7.50;3.97;;;29.90;56.20;;;;;;5052327;28;20484;-74
2023/05/19 07:58:01;;;;;;;11.43;4.17;;;29.90;55.60;;;;;;5054569;28;20489;-73
2023/05/19 08:00:30;;;;;;;11.33;4.23;;;30.20;55.00;;;;;;5044626;28;20485;-73
2023/05/19 08:02:57;;;;;;;7.83;3.90;;;30.40;55.60;;;;;;5035976;28;20473;-72
2023/05/19 08:05:24;;;;;;;6.03;3.80;;;29.80;54.70;;;;;;5041226;28;20442;-71
2023/05/19 08:07:51;;;;;;;8.33;4.30;;;30.20;54.50;;;;;;5050032;28;20489;-72
2023/05/19 08:10:18;;;;;;;5.43;3.30;;;30.10;54.60;;;;;;5048358;28;20536;-71
2023/05/19 08:12:45;;;;;;;6.67;4.40;;;29.80;54.80;;;;;;5049338;28;20634;-71
2023/05/19 08:15:12;;;;;;;8.47;4.00;;;29.70;54.80;;;;;;5047592;28;20530;-72
2023/05/19 08:17:40;;;;;;;7.87;3.63;;;30.10;55.70;;;;;;5050173;28;20512;-71
2023/05/19 08:20:09;;;;;;;4.63;3.23;;;31.20;54.10;;;;;;5050398;28;20520;-71
2023/05/19 08:22:35;;;;;;;9.50;4.40;;;31.30;53.60;;;;;;5051707;28;20960;-73
2023/05/19 08:25:04;;;;;;;7.77;3.70;;;31.20;53.60;;;;;;5045335;28;20938;-71
2023/05/19 08:27:31;;;;;;;11.03;4.47;;;31.30;53.20;;;;;;5049932;28;20443;-71
2023/05/19 08:29:58;;;;;;;4.80;3.93;;;31.30;53.70;;;;;;5043367;28;20954;-72
2023/05/19 08:32:25;;;;;;;5.47;3.70;;;30.70;52.30;;;;;;5045393;28;20474;-70
2023/05/19 08:34:53;;;;;;;4.90;3.60;;;29.90;53.20;;;;;;5047838;28;20887;-72
2023/05/19 08:37:20;;;;;;;7.43;4.10;;;29.90;54.60;;;;;;5047545;28;21009;-70
2023/05/19 08:39:47;;;;;;;7.37;4.00;;;30.00;54.50;;;;;;5041098;28;20534;-72
2023/05/19 08:42:15;;;;;;;8.30;3.67;;;30.30;54.80;;;;;;5043536;28;20510;-73
2023/05/19 08:44:42;;;;;;;5.63;3.73;;;30.60;54.40;;;;;;5049988;28;20596;-73
2023/05/19 08:47:12;;;;;;;6.83;4.50;;;31.00;53.30;;;;;;5039580;28;20513;-73
2023/05/19 08:49:43;;;;;;;6.23;4.40;;;31.10;52.90;;;;;;5046224;28;20446;-72
2023/05/19 08:52:19;;;;;;;10.10;4.00;;;30.70;52.70;;;;;;5040084;28;20562;-72
2023/05/19 08:54:50;;;;;;;6.93;3.47;;;30.20;54.40;;;;;;5043625;28;20460;-73
2023/05/19 08:57:18;;;;;;;17.27;5.57;;;30.50;54.20;;;;;;5047792;28;20492;-74
2023/05/19 08:59:45;;;;;;;11.33;5.13;;;30.70;54.20;;;;;;5050427;28;20982;-72
2023/05/19 09:02:14;;;;;;;5.40;3.63;;;30.90;54.10;;;;;;5051723;28;20477;-74
2023/05/19 09:04:44;;;;;;;6.20;4.20;;;31.20;53.00;;;;;;5051381;28;20537;-72
2023/05/19 09:07:14;;;;;;;9.00;3.57;;;31.40;52.70;;;;;;5051777;28;20928;-74
2023/05/19 09:09:42;;;;;;;7.17;3.33;;;31.60;51.50;;;;;;5050370;28;20870;-74
2023/05/19 09:12:10;;;;;;;5.07;3.50;;;31.10;51.70;;;;;;5041636;28;20956;-75
2023/05/19 09:14:37;;;;;;;10.33;4.00;;;31.10;51.30;;;;;;5048667;28;20446;-73
2023/05/19 09:17:04;;;;;;;3.80;2.90;;;30.70;52.10;;;;;;5045411;28;20485;-74
2023/05/19 09:19:31;;;;;;;4.37;2.80;;;30.90;50.90;;;;;;5043112;28;20870;-74
2023/05/19 09:22:00;;;;;;;4.10;3.07;;;30.70;50.80;;;;;;5048652;28;20468;-73
2023/05/19 09:24:29;;;;;;;8.50;3.77;;;31.00;51.30;;;;;;5039789;28;20449;-72
2023/05/19 09:26:56;;;;;;;7.97;3.80;;;31.20;50.90;;;;;;5052844;28;20497;-73
2023/05/19 09:29:24;;;;;;;5.43;3.63;;;31.10;50.80;;;;;;5046202;28;20443;-73
2023/05/19 09:31:52;;;;;;;5.90;2.80;;;30.60;50.10;;;;;;5052911;28;20478;-73
2023/05/19 09:34:20;;;;;;;8.07;3.60;;;30.20;50.20;;;;;;5046250;28;20550;-73
2023/05/19 09:36:49;;;;;;;9.50;3.13;;;29.60;51.00;;;;;;5032815;28;20935;-74
2023/05/19 09:39:17;;;;;;;8.33;3.43;;;29.40;51.10;;;;;;5053203;28;20461;-72
2023/05/19 09:41:46;;;;;;;7.00;2.93;;;29.40;51.70;;;;;;5053521;28;20552;-73
2023/05/19 09:44:14;;;;;;;4.77;3.23;;;29.40;51.70;;;;;;5052480;28;20550;-73
2023/05/19 09:46:48;;;;;;;6.07;3.27;;;29.30;51.70;;;;;;5050311;28;20441;-74
2023/05/19 09:49:20;;;;;;;5.97;2.70;;;29.30;51.20;;;;;;5035316;28;20455;-72
2023/05/19 09:51:53;;;;;;;4.57;2.60;;;29.00;51.90;;;;;;5048064;28;20467;-72
2023/05/19 09:54:21;;;;;;;3.37;2.87;;;29.40;51.30;;;;;;5051238;28;20529;-74
2023/05/19 09:56:58;;;;;;;6.03;3.40;;;29.40;50.40;;;;;;5052316;28;20462;-74
2023/05/19 09:59:25;;;;;;;8.93;2.70;;;29.10;51.10;;;;;;5034678;28;20465;-75
2023/05/19 10:01:55;;;;;;;7.67;4.07;;;28.10;50.00;;;;;;5050246;28;20470;-75
2023/05/19 10:04:23;;;;;;;7.87;3.00;;;26.60;51.00;;;;;;5053149;28;20793;-74
2023/05/19 10:06:53;;;;;;;4.63;3.00;;;25.70;53.10;;;;;;5054465;28;20450;-72
2023/05/19 10:09:23;;;;;;;6.20;3.30;;;26.10;53.50;;;;;;5040999;28;20443;-73
2023/05/19 10:11:53;;;;;;;5.47;2.80;;;26.70;53.30;;;;;;5050988;28;20473;-72
2023/05/19 10:14:23;;;;;;;4.53;3.33;;;26.10;52.50;;;;;;5042139;28;20826;-72
2023/05/19 10:16:51;;;;;;;6.10;2.97;;;25.90;55.10;;;;;;5047743;28;20446;-73
2023/05/19 10:19:21;;;;;;;3.17;2.47;;;26.50;53.50;;;;;;5048990;28;20987;-73
2023/05/19 10:21:48;;;;;;;6.03;3.10;;;26.30;53.20;;;;;;5042500;28;20479;-72
2023/05/19 10:24:16;;;;;;;5.23;3.00;;;25.60;53.40;;;;;;5046649;28;20447;-74
2023/05/19 10:26:46;;;;;;;5.00;2.60;;;24.30;54.20;;;;;;5039645;28;20859;-74
2023/05/19 10:29:18;;;;;;;3.30;2.90;;;23.40;55.50;;;;;;5051494;28;20449;-73
2023/05/19 10:31:47;;;;;;;5.33;2.93;;;22.80;57.20;;;;;;5050440;28;20552;-73
2023/05/19 10:34:36;;;;;;;5.93;2.73;;;22.60;58.40;;;;;;5049448;28;20850;-72
2023/05/19 10:37:13;;;;;;;2.63;2.20;;;22.40;58.00;;;;;;5048030;28;20496;-74
2023/05/19 10:39:43;;;;;;;7.10;3.63;;;22.30;58.30;;;;;;5048102;28;20442;-75
2023/05/19 10:42:16;;;;;;;5.03;2.53;;;22.50;58.60;;;;;;5049702;28;20519;-74
2023/05/19 10:44:58;;;;;;;5.23;2.67;;;22.50;58.60;;;;;;5046185;28;20972;-74
2023/05/19 10:47:25;;;;;;;4.87;3.00;;;22.30;57.30;;;;;;5048762;28;20529;-73
2023/05/19 10:49:53;;;;;;;5.90;2.90;;;22.50;57.20;;;;;;5052337;28;20477;-76
2023/05/19 10:52:25;;;;;;;5.20;3.27;;;22.90;58.90;;;;;;5050650;28;20466;-76
2023/05/19 10:54:53;;;;;;;4.80;2.20;;;23.10;58.00;;;;;;5049425;28;20456;-74
2023/05/19 10:57:25;;;;;;;5.70;2.40;;;23.20;57.50;;;;;;5045187;28;20489;-75
2023/05/19 10:59:55;;;;;;;5.63;3.10;;;23.00;57.00;;;;;;5039847;28;20509;-74
2023/05/19 11:02:39;;;;;;;5.20;3.47;;;22.70;57.80;;;;;;5042178;28;20558;-75
2023/05/19 11:05:11;;;;;;;4.57;2.90;;;22.70;58.40;;;;;;5047966;28;20970;-74
2023/05/19 11:07:42;;;;;;;4.40;2.70;;;22.60;57.80;;;;;;5043066;28;20493;-75
2023/05/19 11:10:09;;;;;;;3.70;2.57;;;22.10;58.40;;;;;;5048093;28;20441;-75
2023/05/19 11:12:44;;;;;;;6.03;2.90;;;21.50;58.70;;;;;;5044477;28;20557;-74
2023/05/19 11:15:16;;;;;;;6.60;3.00;;;21.20;59.50;;;;;;5047019;28;20527;-74
2023/05/19 11:17:48;;;;;;;8.70;3.70;;;21.00;59.70;;;;;;5048024;28;20677;-75
2023/05/19 11:20:23;;;;;;;3.20;2.20;;;20.80;60.10;;;;;;5039641;28;20472;-75
2023/05/19 11:23:06;;;;;;;6.43;2.70;;;21.00;59.50;;;;;;5048913;28;20466;-75
2023/05/19 11:25:45;;;;;;;5.47;2.30;;;21.20;58.60;;;;;;5043448;28;20456;-74
2023/05/19 11:28:13;;;;;;;4.43;2.30;;;21.70;60.00;;;;;;5035655;28;20829;-75
2023/05/19 11:30:43;;;;;;;4.27;2.83;;;22.00;59.90;;;;;;5050346;28;20443;-75
2023/05/19 11:33:10;;;;;;;5.53;2.13;;;22.30;60.10;;;;;;5044944;28;20466;-74
2023/05/19 11:35:38;;;;;;;4.60;2.47;;;22.50;59.60;;;;;;5049501;28;20908;-76
2023/05/19 11:38:05;;;;;;;6.10;2.40;;;22.00;58.70;;;;;;5049699;28;20576;-74
2023/05/19 11:40:33;;;;;;;7.07;2.37;;;21.90;59.60;;;;;;5045683;28;20521;-75
2023/05/19 11:43:00;;;;;;;8.13;2.60;;;21.70;59.90;;;;;;5047178;28;20480;-74
2023/05/19 11:45:28;;;;;;;5.87;2.80;;;21.70;59.70;;;;;;5045988;28;20500;-73
2023/05/19 11:47:58;;;;;;;6.23;2.77;;;21.40;60.30;;;;;;5052726;28;20966;-75
2023/05/19 11:50:26;;;;;;;4.27;2.70;;;21.60;60.90;;;;;;5047380;28;20544;-75
2023/05/19 11:52:54;;;;;;;4.10;2.40;;;21.70;61.70;;;;;;5049450;28;20549;-75
2023/05/19 11:55:21;;;;;;;3.07;2.23;;;21.80;60.30;;;;;;5053219;28;20821;-74
2023/05/19 11:57:59;;;;;;;4.60;2.33;;;21.90;60.80;;;;;;5057188;28;20975;-75
2023/05/19 12:00:26;;;;;;;4.13;2.23;;;21.70;60.30;;;;;;5051942;28;20452;-74
2023/05/19 12:02:56;;;;;;;3.03;2.60;;;21.60;59.30;;;;;;5052055;28;20991;-75
2023/05/19 12:05:24;;;;;;;7.40;2.80;;;21.50;59.30;;;;;;5050234;28;20531;-75
2023/05/19 12:07:51;;;;;;;2.80;2.20;;;21.40;59.60;;;;;;5046308;28;20507;-74
2023/05/19 12:10:21;;;;;;;4.43;2.70;;;21.30;60.40;;;;;;5057120;28;20927;-74
2023/05/19 12:12:49;;;;;;;3.97;2.90;;;21.30;60.10;;;;;;5045017;28;20475;-75
2023/05/19 12:15:19;;;;;;;7.33;2.70;;;21.10;60.40;;;;;;5046945;28;20453;-74
2023/05/19 12:17:49;;;;;;;4.47;2.43;;;20.90;61.10;;;;;;5052912;28;20548;-75
2023/05/19 12:20:17;;;;;;;4.73;2.30;;;21.00;61.90;;;;;;5053277;28;20475;-75
2023/05/19 12:22:47;;;;;;;10.03;3.63;;;21.20;62.20;;;;;;5047360;28;20939;-74
2023/05/19 12:25:15;;;;;;;5.13;2.37;;;21.40;62.40;;;;;;5053213;28;20454;-75
2023/05/19 12:27:43;;;;;;;5.53;2.20;;;21.70;60.30;;;;;;5058592;28;20479;-75
2023/05/19 12:30:11;;;;;;;6.13;2.37;;;21.80;60.60;;;;;;5051682;28;20473;-75
2023/05/19 12:32:38;;;;;;;5.00;3.27;;;21.90;60.20;;;;;;5038581;28;20462;-75
2023/05/19 12:35:06;;;;;;;6.50;2.57;;;21.70;59.70;;;;;;5047596;28;20528;-79
2023/05/19 12:37:35;;;;;;;4.10;2.27;;;21.70;60.30;;;;;;5049590;28;20434;-75
2023/05/19 12:40:04;;;;;;;4.03;2.30;;;21.80;59.90;;;;;;5057357;28;20557;-76
2023/05/19 12:42:31;;;;;;;6.07;3.33;;;21.70;59.20;;;;;;5042825;28;20475;-75
2023/05/19 12:44:59;;;;;;;4.90;2.57;;;21.60;60.30;;;;;;5043059;28;20537;-76
2023/05/19 12:47:32;;;;;;;6.33;2.60;;;21.60;60.00;;;;;;5056485;28;20537;-77
2023/05/19 12:50:02;;;;;;;5.73;2.30;;;21.60;60.10;;;;;;5042857;28;20871;-75
2023/05/19 12:52:34;;;;;;;4.00;2.40;;;21.80;60.10;;;;;;5051710;28;20465;-76
2023/05/19 12:55:05;;;;;;;3.70;2.83;;;22.00;59.00;;;;;;5052033;28;20460;-75